Theologos P . — SZNB — position and weather

sailwx.info

Track history (hours):
 
Tides and Currents Weather Stations Pressure Air Temp Water Temp Dewpoint Dewpoint Depression Visibility Wind Speed Wind Dir Waves Ship Positions

Theologos P .

Last reported at 2016-Aug-25 06:27 UTC. Time now 2016-Aug-25 08:05 UTC.
Position N 37°44' E 024°51'.

Length 118 m; draft 4.5 m.

Type: Passenger vessel. MMSI: 240521000.

Date/timePositionNaut miles runAvg speedWind from/ knotsBaromVisibWave heightAir tempDewpointWater temp
2016-Aug-25 06:27N 37°44' E 024°51'2814.5
2016-Aug-25 04:33N 37°28' E 025°20'0 0.0
2016-Aug-25 03:34N 37°28' E 025°20'0 0.0
2016-Aug-25 02:34N 37°28' E 025°20'0 0.0
2016-Aug-25 01:34N 37°28' E 025°20'0 0.0
2016-Aug-25 00:34N 37°28' E 025°20'0 0.0
2016-Aug-24 23:33N 37°28' E 025°20'0 0.0
2016-Aug-24 22:33N 37°28' E 025°20'0 0.0
2016-Aug-24 21:33N 37°28' E 025°20'0 0.0
2016-Aug-24 20:33N 37°28' E 025°20'0 0.0
2016-Aug-24 19:33N 37°28' E 025°20'9 9.4
2016-Aug-24 18:34N 37°32' E 025°09'1918.9
2016-Aug-24 17:33N 37°45' E 024°51'1010.1
2016-Aug-24 16:33N 37°52' E 024°42'2017.7
2016-Aug-24 15:26N 37°57' E 024°18'14 2.3
2016-Aug-24 09:18N 38°01' E 024°01'1317.3
2016-Aug-24 08:33N 37°57' E 024°16'3014.4
2016-Aug-24 06:30N 37°45' E 024°51'2914.8
2016-Aug-24 04:34N 37°28' E 025°20'0 0.0
2016-Aug-24 03:34N 37°28' E 025°20'0 0.0
2016-Aug-24 02:33N 37°28' E 025°20'0 0.0
2016-Aug-24 01:33N 37°28' E 025°20'0 0.0
2016-Aug-24 00:33N 37°28' E 025°20'0 0.0
2016-Aug-23 23:34N 37°28' E 025°20'0 0.0
2016-Aug-23 22:33N 37°28' E 025°20'0 0.0
2016-Aug-23 21:34N 37°28' E 025°20'0 0.0
2016-Aug-23 20:33N 37°28' E 025°20'0 0.0
2016-Aug-23 19:34N 37°28' E 025°20'9 9.2
2016-Aug-23 18:33N 37°32' E 025°09'1515.2
2016-Aug-23 17:33N 37°42' E 024°55'3314.8
2016-Aug-23 15:18N 37°57' E 024°17'14 2.3
2016-Aug-23 09:17N 38°01' E 024°01'1217.3
2016-Aug-23 08:34N 37°57' E 024°16'3215.1
2016-Aug-23 06:28N 37°44' E 024°52'1719.1
2016-Aug-23 05:33N 37°32' E 025°08'1010.0
2016-Aug-23 04:33N 37°28' E 025°20'0 0.0
2016-Aug-23 03:33N 37°28' E 025°20'0 0.0
2016-Aug-23 02:33N 37°28' E 025°20'0 0.0
2016-Aug-23 01:33N 37°28' E 025°20'0 0.0
2016-Aug-23 00:33N 37°28' E 025°20'0 0.0
2016-Aug-22 23:33N 37°28' E 025°20'0 0.0
2016-Aug-22 22:33N 37°28' E 025°20'0 0.0
2016-Aug-22 21:33N 37°28' E 025°20'0 0.0
2016-Aug-22 20:33N 37°28' E 025°20'0 0.0
2016-Aug-22 19:34N 37°28' E 025°20'9 9.2
2016-Aug-22 18:33N 37°32' E 025°09'1514.7
2016-Aug-22 17:33N 37°42' E 024°55'3314.9
2016-Aug-22 15:21N 37°57' E 024°18'15 2.5
2016-Aug-22 09:23N 38°01' E 024°01'1517.5
2016-Aug-22 08:33N 37°57' E 024°19'3014.0
2016-Aug-22 06:23N 37°43' E 024°53'1619.0
2016-Aug-22 05:33N 37°33' E 025°07'1110.8
2016-Aug-22 04:33N 37°28' E 025°20'0 0.0
2016-Aug-22 03:33N 37°28' E 025°20'0 0.0
2016-Aug-22 02:33N 37°28' E 025°20'0 0.0
2016-Aug-22 01:33N 37°28' E 025°20'0 0.0
2016-Aug-22 00:33N 37°28' E 025°20'2 1.9
2016-Aug-21 23:34N 37°28' E 025°17'1515.4
2016-Aug-21 22:34N 37°36' E 025°00'3919.4
2016-Aug-21 20:32N 37°54' E 024°17'1411.4
2016-Aug-21 19:16N 38°01' E 024°01'1116.2
2016-Aug-21 18:33N 37°58' E 024°14'2 0.6
2016-Aug-21 15:21N 37°57' E 024°17'5 2.9
2016-Aug-21 13:33N 37°59' E 024°11'4314.3
2016-Aug-21 10:33N 37°39' E 024°59'1111.1
2016-Aug-21 09:34N 37°32' E 025°10'9 8.7
2016-Aug-21 08:33N 37°28' E 025°20'0 0.0
2016-Aug-21 07:33N 37°28' E 025°20'0 0.0
2016-Aug-21 06:33N 37°28' E 025°20'0 0.0
2016-Aug-21 05:33N 37°28' E 025°20'0 0.0
2016-Aug-21 04:33N 37°28' E 025°20'0 0.0
2016-Aug-21 03:33N 37°28' E 025°20'0 0.0
2016-Aug-21 02:33N 37°28' E 025°20'0 0.0
2016-Aug-21 01:34N 37°28' E 025°20'0 0.0
2016-Aug-21 00:33N 37°28' E 025°20'0 0.0
2016-Aug-20 23:33N 37°28' E 025°20'0 0.0
2016-Aug-20 22:33N 37°28' E 025°20'0 0.0
2016-Aug-20 21:34N 37°28' E 025°20'0 0.0
2016-Aug-20 20:33N 37°28' E 025°20'0 0.0
2016-Aug-20 19:33N 37°28' E 025°20'10 9.5
2016-Aug-20 18:33N 37°32' E 025°09'4916.4
2016-Aug-20 15:33N 37°57' E 024°15'12 9.3
2016-Aug-20 14:14N 38°01' E 024°01'1217.1
2016-Aug-20 13:33N 37°58' E 024°15'3113.1
2016-Aug-20 11:11N 37°45' E 024°51'1218.8
2016-Aug-20 10:33N 37°36' E 025°01'10 9.9
2016-Aug-20 09:34N 37°31' E 025°11'6 5.9
2016-Aug-20 08:34N 37°28' E 025°18'1312.7
2016-Aug-20 07:33N 37°35' E 025°04'4916.3
2016-Aug-20 04:33N 37°59' E 024°10'8 1.6
2016-Aug-19 23:31N 38°01' E 024°01'1717.6
2016-Aug-19 22:33N 37°55' E 024°21'3919.4
2016-Aug-19 20:33N 37°34' E 025°02'1515.1
2016-Aug-19 19:33N 37°28' E 025°19'9 9.2
2016-Aug-19 18:34N 37°32' E 025°09'1514.6
2016-Aug-19 17:33N 37°42' E 024°55'3314.8
2016-Aug-19 15:19N 37°57' E 024°18'14 2.3
2016-Aug-19 09:16N 38°01' E 024°01'1217.4
2016-Aug-19 08:33N 37°57' E 024°15'3114.8
2016-Aug-19 06:28N 37°45' E 024°51'1719.0
2016-Aug-19 05:34N 37°33' E 025°07'1111.2
2016-Aug-19 04:33N 37°28' E 025°20'0 0.0
2016-Aug-19 03:33N 37°28' E 025°20'0 0.0
2016-Aug-19 02:33N 37°28' E 025°20'0 0.0
2016-Aug-19 01:33N 37°28' E 025°20'0 0.0
2016-Aug-19 00:33N 37°28' E 025°20'0 0.0
2016-Aug-18 23:33N 37°28' E 025°20'0 0.0
2016-Aug-18 22:33N 37°28' E 025°20'0 0.0
2016-Aug-18 21:33N 37°28' E 025°20'0 0.0
2016-Aug-18 20:34N 37°28' E 025°20'0 0.0
2016-Aug-18 19:33N 37°28' E 025°20'9 9.3
2016-Aug-18 18:34N 37°32' E 025°09'1514.8
2016-Aug-18 17:33N 37°42' E 024°55'1413.0
2016-Aug-18 16:30N 37°52' E 024°44'1918.3
2016-Aug-18 15:28N 37°56' E 024°20'16 2.6
2016-Aug-18 09:16N 38°01' E 024°01'1217.7
2016-Aug-18 08:34N 37°58' E 024°16'3314.8
2016-Aug-18 06:21N 37°43' E 024°53'1519.0
2016-Aug-18 05:34N 37°33' E 025°07'1111.4
2016-Aug-18 04:33N 37°28' E 025°20'0 0.0
2016-Aug-18 03:33N 37°28' E 025°20'0 0.0
2016-Aug-18 02:34N 37°28' E 025°20'0 0.0
2016-Aug-18 01:33N 37°28' E 025°20'0 0.0
2016-Aug-18 00:33N 37°28' E 025°20'0 0.0
2016-Aug-17 23:33N 37°28' E 025°20'0 0.0
2016-Aug-17 22:33N 37°28' E 025°20'0 0.0
2016-Aug-17 21:33N 37°28' E 025°20'0 0.0
2016-Aug-17 20:33N 37°28' E 025°20'0 0.0
2016-Aug-17 19:33N 37°28' E 025°20'9 9.3
2016-Aug-17 18:34N 37°32' E 025°09'1515.3
2016-Aug-17 17:34N 37°42' E 024°55'1312.3
2016-Aug-17 16:28N 37°52' E 024°44'2118.4
2016-Aug-17 15:21N 37°57' E 024°18'14 2.4
2016-Aug-17 09:20N 38°01' E 024°01'1417.3
2016-Aug-17 08:33N 37°57' E 024°17'3314.6
2016-Aug-17 06:16N 37°42' E 024°54'1318.9
2016-Aug-17 05:34N 37°33' E 025°07'1111.2
2016-Aug-17 04:34N 37°28' E 025°20'0 0.0
2016-Aug-17 03:33N 37°28' E 025°20'0 0.0
2016-Aug-17 02:34N 37°28' E 025°20'0 0.0
2016-Aug-17 01:33N 37°28' E 025°20'0 0.0
2016-Aug-17 00:33N 37°28' E 025°20'0 0.0
2016-Aug-16 23:34N 37°28' E 025°20'0 0.0
2016-Aug-16 22:33N 37°28' E 025°20'0 0.0
2016-Aug-16 21:33N 37°28' E 025°20'0 0.0
2016-Aug-16 20:33N 37°28' E 025°20'0 0.0
2016-Aug-16 19:33N 37°28' E 025°20'9 9.3
2016-Aug-16 18:33N 37°32' E 025°09'1515.2
2016-Aug-16 17:34N 37°42' E 024°55'3314.7
2016-Aug-16 15:19N 37°57' E 024°17'14 2.3
2016-Aug-16 09:20N 38°01' E 024°01'1417.7
2016-Aug-16 08:34N 37°57' E 024°17'5714.3
2016-Aug-16 04:34N 37°28' E 025°20'0 0.0
2016-Aug-16 03:33N 37°28' E 025°20'0 0.0
2016-Aug-16 02:34N 37°28' E 025°20'0 0.0
2016-Aug-16 01:34N 37°28' E 025°20'0 0.0
2016-Aug-16 00:34N 37°28' E 025°20'2 2.3
2016-Aug-15 23:34N 37°29' E 025°17'1515.3
2016-Aug-15 22:34N 37°37' E 025°00'1919.1
2016-Aug-15 21:33N 37°48' E 024°41'1919.5
2016-Aug-15 20:34N 37°56' E 024°18'1514.7
2016-Aug-15 19:33N 38°01' E 024°01'7 7.1
2016-Aug-15 18:33N 37°59' E 024°09'1919.2
2016-Aug-15 17:33N 37°53' E 024°32'9 8.1
2016-Aug-15 16:29N 37°52' E 024°43'2117.4
2016-Aug-15 15:16N 37°57' E 024°17'7 4.2
2016-Aug-15 13:34N 37°60' E 024°09'3815.7
2016-Aug-15 11:08N 37°43' E 024°52'1119.0
2016-Aug-15 10:34N 37°36' E 025°02'1010.0
2016-Aug-15 09:34N 37°30' E 025°12'6 6.0
2016-Aug-15 08:34N 37°28' E 025°20'0 0.0
2016-Aug-15 07:33N 37°28' E 025°20'0 0.0
2016-Aug-15 06:34N 37°28' E 025°20'  
Track history (hours):
 
Tides and Currents Weather Stations Pressure Air Temp Water Temp Dewpoint Dewpoint Depression Visibility Wind Speed Wind Dir Waves Ship Positions

Theologos P .

Last reported at 2016-Aug-25 06:27 UTC. Time now 2016-Aug-25 08:05 UTC.
Position N 37°44' E 024°51'.

Length 118 m; draft 4.5 m.

Type: Passenger vessel. MMSI: 240521000.

Date/timePositionNaut miles runAvg speedWind from/ knotsBaromVisibWave heightAir tempDewpointWater temp
2016-Aug-25 06:27N 37°44' E 024°51'2814.5
2016-Aug-25 04:33N 37°28' E 025°20'0 0.0
2016-Aug-25 03:34N 37°28' E 025°20'0 0.0
2016-Aug-25 02:34N 37°28' E 025°20'0 0.0
2016-Aug-25 01:34N 37°28' E 025°20'0 0.0
2016-Aug-25 00:34N 37°28' E 025°20'0 0.0
2016-Aug-24 23:33N 37°28' E 025°20'0 0.0
2016-Aug-24 22:33N 37°28' E 025°20'0 0.0
2016-Aug-24 21:33N 37°28' E 025°20'0 0.0
2016-Aug-24 20:33N 37°28' E 025°20'0 0.0
2016-Aug-24 19:33N 37°28' E 025°20'9 9.4
2016-Aug-24 18:34N 37°32' E 025°09'1918.9
2016-Aug-24 17:33N 37°45' E 024°51'1010.1
2016-Aug-24 16:33N 37°52' E 024°42'2017.7
2016-Aug-24 15:26N 37°57' E 024°18'14 2.3
2016-Aug-24 09:18N 38°01' E 024°01'1317.3
2016-Aug-24 08:33N 37°57' E 024°16'3014.4
2016-Aug-24 06:30N 37°45' E 024°51'2914.8
2016-Aug-24 04:34N 37°28' E 025°20'0 0.0
2016-Aug-24 03:34N 37°28' E 025°20'0 0.0
2016-Aug-24 02:33N 37°28' E 025°20'0 0.0
2016-Aug-24 01:33N 37°28' E 025°20'0 0.0
2016-Aug-24 00:33N 37°28' E 025°20'0 0.0
2016-Aug-23 23:34N 37°28' E 025°20'0 0.0
2016-Aug-23 22:33N 37°28' E 025°20'0 0.0
2016-Aug-23 21:34N 37°28' E 025°20'0 0.0
2016-Aug-23 20:33N 37°28' E 025°20'0 0.0
2016-Aug-23 19:34N 37°28' E 025°20'9 9.2
2016-Aug-23 18:33N 37°32' E 025°09'1515.2
2016-Aug-23 17:33N 37°42' E 024°55'3314.8
2016-Aug-23 15:18N 37°57' E 024°17'14 2.3
2016-Aug-23 09:17N 38°01' E 024°01'1217.3
2016-Aug-23 08:34N 37°57' E 024°16'3215.1
2016-Aug-23 06:28N 37°44' E 024°52'1719.1
2016-Aug-23 05:33N 37°32' E 025°08'1010.0
2016-Aug-23 04:33N 37°28' E 025°20'0 0.0
2016-Aug-23 03:33N 37°28' E 025°20'0 0.0
2016-Aug-23 02:33N 37°28' E 025°20'0 0.0
2016-Aug-23 01:33N 37°28' E 025°20'0 0.0
2016-Aug-23 00:33N 37°28' E 025°20'0 0.0
2016-Aug-22 23:33N 37°28' E 025°20'0 0.0
2016-Aug-22 22:33N 37°28' E 025°20'0 0.0
2016-Aug-22 21:33N 37°28' E 025°20'0 0.0
2016-Aug-22 20:33N 37°28' E 025°20'0 0.0
2016-Aug-22 19:34N 37°28' E 025°20'9 9.2
2016-Aug-22 18:33N 37°32' E 025°09'1514.7
2016-Aug-22 17:33N 37°42' E 024°55'3314.9
2016-Aug-22 15:21N 37°57' E 024°18'15 2.5
2016-Aug-22 09:23N 38°01' E 024°01'1517.5
2016-Aug-22 08:33N 37°57' E 024°19'3014.0
2016-Aug-22 06:23N 37°43' E 024°53'1619.0
2016-Aug-22 05:33N 37°33' E 025°07'1110.8
2016-Aug-22 04:33N 37°28' E 025°20'0 0.0
2016-Aug-22 03:33N 37°28' E 025°20'0 0.0
2016-Aug-22 02:33N 37°28' E 025°20'0 0.0
2016-Aug-22 01:33N 37°28' E 025°20'0 0.0
2016-Aug-22 00:33N 37°28' E 025°20'2 1.9
2016-Aug-21 23:34N 37°28' E 025°17'1515.4
2016-Aug-21 22:34N 37°36' E 025°00'3919.4
2016-Aug-21 20:32N 37°54' E 024°17'1411.4
2016-Aug-21 19:16N 38°01' E 024°01'1116.2
2016-Aug-21 18:33N 37°58' E 024°14'2 0.6
2016-Aug-21 15:21N 37°57' E 024°17'5 2.9
2016-Aug-21 13:33N 37°59' E 024°11'4314.3
2016-Aug-21 10:33N 37°39' E 024°59'1111.1
2016-Aug-21 09:34N 37°32' E 025°10'9 8.7
2016-Aug-21 08:33N 37°28' E 025°20'0 0.0
2016-Aug-21 07:33N 37°28' E 025°20'0 0.0
2016-Aug-21 06:33N 37°28' E 025°20'0 0.0
2016-Aug-21 05:33N 37°28' E 025°20'0 0.0
2016-Aug-21 04:33N 37°28' E 025°20'0 0.0
2016-Aug-21 03:33N 37°28' E 025°20'0 0.0
2016-Aug-21 02:33N 37°28' E 025°20'0 0.0
2016-Aug-21 01:34N 37°28' E 025°20'0 0.0
2016-Aug-21 00:33N 37°28' E 025°20'0 0.0
2016-Aug-20 23:33N 37°28' E 025°20'0 0.0
2016-Aug-20 22:33N 37°28' E 025°20'0 0.0
2016-Aug-20 21:34N 37°28' E 025°20'0 0.0
2016-Aug-20 20:33N 37°28' E 025°20'0 0.0
2016-Aug-20 19:33N 37°28' E 025°20'10 9.5
2016-Aug-20 18:33N 37°32' E 025°09'4916.4
2016-Aug-20 15:33N 37°57' E 024°15'12 9.3
2016-Aug-20 14:14N 38°01' E 024°01'1217.1
2016-Aug-20 13:33N 37°58' E 024°15'3113.1
2016-Aug-20 11:11N 37°45' E 024°51'1218.8
2016-Aug-20 10:33N 37°36' E 025°01'10 9.9
2016-Aug-20 09:34N 37°31' E 025°11'6 5.9
2016-Aug-20 08:34N 37°28' E 025°18'1312.7
2016-Aug-20 07:33N 37°35' E 025°04'4916.3
2016-Aug-20 04:33N 37°59' E 024°10'8 1.6
2016-Aug-19 23:31N 38°01' E 024°01'1717.6
2016-Aug-19 22:33N 37°55' E 024°21'3919.4
2016-Aug-19 20:33N 37°34' E 025°02'1515.1
2016-Aug-19 19:33N 37°28' E 025°19'9 9.2
2016-Aug-19 18:34N 37°32' E 025°09'1514.6
2016-Aug-19 17:33N 37°42' E 024°55'3314.8
2016-Aug-19 15:19N 37°57' E 024°18'14 2.3
2016-Aug-19 09:16N 38°01' E 024°01'1217.4
2016-Aug-19 08:33N 37°57' E 024°15'3114.8
2016-Aug-19 06:28N 37°45' E 024°51'1719.0
2016-Aug-19 05:34N 37°33' E 025°07'1111.2
2016-Aug-19 04:33N 37°28' E 025°20'0 0.0
2016-Aug-19 03:33N 37°28' E 025°20'0 0.0
2016-Aug-19 02:33N 37°28' E 025°20'0 0.0
2016-Aug-19 01:33N 37°28' E 025°20'0 0.0
2016-Aug-19 00:33N 37°28' E 025°20'0 0.0
2016-Aug-18 23:33N 37°28' E 025°20'0 0.0
2016-Aug-18 22:33N 37°28' E 025°20'0 0.0
2016-Aug-18 21:33N 37°28' E 025°20'0 0.0
2016-Aug-18 20:34N 37°28' E 025°20'0 0.0
2016-Aug-18 19:33N 37°28' E 025°20'9 9.3
2016-Aug-18 18:34N 37°32' E 025°09'1514.8
2016-Aug-18 17:33N 37°42' E 024°55'1413.0
2016-Aug-18 16:30N 37°52' E 024°44'1918.3
2016-Aug-18 15:28N 37°56' E 024°20'16 2.6
2016-Aug-18 09:16N 38°01' E 024°01'1217.7
2016-Aug-18 08:34N 37°58' E 024°16'3314.8
2016-Aug-18 06:21N 37°43' E 024°53'1519.0
2016-Aug-18 05:34N 37°33' E 025°07'1111.4
2016-Aug-18 04:33N 37°28' E 025°20'0 0.0
2016-Aug-18 03:33N 37°28' E 025°20'0 0.0
2016-Aug-18 02:34N 37°28' E 025°20'0 0.0
2016-Aug-18 01:33N 37°28' E 025°20'0 0.0
2016-Aug-18 00:33N 37°28' E 025°20'0 0.0
2016-Aug-17 23:33N 37°28' E 025°20'0 0.0
2016-Aug-17 22:33N 37°28' E 025°20'0 0.0
2016-Aug-17 21:33N 37°28' E 025°20'0 0.0
2016-Aug-17 20:33N 37°28' E 025°20'0 0.0
2016-Aug-17 19:33N 37°28' E 025°20'9 9.3
2016-Aug-17 18:34N 37°32' E 025°09'1515.3
2016-Aug-17 17:34N 37°42' E 024°55'1312.3
2016-Aug-17 16:28N 37°52' E 024°44'2118.4
2016-Aug-17 15:21N 37°57' E 024°18'14 2.4
2016-Aug-17 09:20N 38°01' E 024°01'1417.3
2016-Aug-17 08:33N 37°57' E 024°17'3314.6
2016-Aug-17 06:16N 37°42' E 024°54'1318.9
2016-Aug-17 05:34N 37°33' E 025°07'1111.2
2016-Aug-17 04:34N 37°28' E 025°20'0 0.0
2016-Aug-17 03:33N 37°28' E 025°20'0 0.0
2016-Aug-17 02:34N 37°28' E 025°20'0 0.0
2016-Aug-17 01:33N 37°28' E 025°20'0 0.0
2016-Aug-17 00:33N 37°28' E 025°20'0 0.0
2016-Aug-16 23:34N 37°28' E 025°20'0 0.0
2016-Aug-16 22:33N 37°28' E 025°20'0 0.0
2016-Aug-16 21:33N 37°28' E 025°20'0 0.0
2016-Aug-16 20:33N 37°28' E 025°20'0 0.0
2016-Aug-16 19:33N 37°28' E 025°20'9 9.3
2016-Aug-16 18:33N 37°32' E 025°09'1515.2
2016-Aug-16 17:34N 37°42' E 024°55'3314.7
2016-Aug-16 15:19N 37°57' E 024°17'14 2.3
2016-Aug-16 09:20N 38°01' E 024°01'1417.7
2016-Aug-16 08:34N 37°57' E 024°17'5714.3
2016-Aug-16 04:34N 37°28' E 025°20'0 0.0
2016-Aug-16 03:33N 37°28' E 025°20'0 0.0
2016-Aug-16 02:34N 37°28' E 025°20'0 0.0
2016-Aug-16 01:34N 37°28' E 025°20'0 0.0
2016-Aug-16 00:34N 37°28' E 025°20'2 2.3
2016-Aug-15 23:34N 37°29' E 025°17'1515.3
2016-Aug-15 22:34N 37°37' E 025°00'1919.1
2016-Aug-15 21:33N 37°48' E 024°41'1919.5
2016-Aug-15 20:34N 37°56' E 024°18'1514.7
2016-Aug-15 19:33N 38°01' E 024°01'7 7.1
2016-Aug-15 18:33N 37°59' E 024°09'1919.2
2016-Aug-15 17:33N 37°53' E 024°32'9 8.1
2016-Aug-15 16:29N 37°52' E 024°43'2117.4
2016-Aug-15 15:16N 37°57' E 024°17'7 4.2
2016-Aug-15 13:34N 37°60' E 024°09'3815.7
2016-Aug-15 11:08N 37°43' E 024°52'1119.0
2016-Aug-15 10:34N 37°36' E 025°02'1010.0
2016-Aug-15 09:34N 37°30' E 025°12'6 6.0
2016-Aug-15 08:34N 37°28' E 025°20'0 0.0
2016-Aug-15 07:33N 37°28' E 025°20'0 0.0
2016-Aug-15 06:34N 37°28' E 025°20'  

Dump ship's entire track history